Baton Rouge, LA (70893)

5:10 AM CST on December 27, 2014 (GMT -0600)
Pollard Estates | Change Station
CLOSE
Current Station
Personal Weather Station
Location: Baton Rouge, LA
Elevation: 26 ft
Nearby Weather Stations
Active Advisory: Areal Flood Watch

Elev 26 ft 30.41 °N, 91.13 °W | Updated 1 second ago

Overcast
Overcast
60.8 °F
Feels Like 60.8 °F
N
0.0
Wind Variable Wind from North
Gusts 0.0 mph

Today
High -- | Low -- °F
--% Chance of Precip.
Yesterday
High -- | Low -- °F
Precip. -- in
7:00 AM 5:11 PM
Waxing Crescent, 35% visible
Pressure 30.09 in
Visibility 10.0 miles
Clouds Few 400 ft
Mostly Cloudy 2600 ft
Overcast 3800 ft
Dew Point 60 °F
Humidity 99%
Rainfall 0.00 in
Snow Depth Not available.
UV 0 out of 12
Pollen 4.20 out of 12
Air Quality Not available.
Flu Activity Not available.
METAR KBTR 271053Z 08008KT 10SM FEW004 BKN026 OVC038 16/14 A3009 RMK AO2 SLP188 T01560144

More Conditions Fewer Conditions

Pressure 30.09 in
Visibility 10.0 miles
Clouds Few 400 ft
Mostly Cloudy 2600 ft
Overcast 3800 ft
Dew Point 60 °F
Humidity 99%
Rainfall 0.00 in
Snow Depth Not available.
UV 0 out of 12
Pollen 4.20 out of 12
Air Quality Not available.
Flu Activity Not available.
METAR KBTR 271053Z 08008KT 10SM FEW004 BKN026 OVC038 16/14 A3009 RMK AO2 SLP188 T01560144

More Conditions Fewer Conditions

10-Day Weather Forecast

Almanac

Astronomy

Dec. 27, 2014 Rise Set
Actual Time
Civil Twilight
Nautical Twilight
Astronomical Twilight
Moon
Length of Visible Light
Length of Day
Tomorrow will be .
, % of the Moon is Illuminated

Today's Extremes

State Highs State Lows

Community

WunderPhotos

Upload Photos

1,780,879 photos uploaded!

WunderBlogs® & News

Nearby

Air Quality

  Air Quality AQ Index Pollutant
Not available.

Snow Depth

Station Depth Elevation

Earthquake Activity

City Distance Mag. Time & Date
Minimum magnitude displayed is 2.5.

Coastal Water Temperatures

Place Temperature

Nearby Weather Stations